Echo, Minnesota
Current Conditions -  °F | °C
As of 4:12 PM on Monday 20 Oct 2014 (Local Time) from KGDB Reporting Station
Clear Clear  
Wind Chill: 67°   Ceiling: Unl
Heat Index: 67°   Visibility: 10mi
Dew Point: 40°   Wind: 9mph
Humidity: 36%   Direction: 300°WNW
Pressure: 30.03"   Gusts: NA
Location:  44.62°N, 95.42°W
Report Text: KGDB 202112Z AUTO 30008KT 10SM CLR 20/04 A3003 RMK AO2 T01960043
Loading
Personal Weather Stations






























Interactive Weather Map
Tropical Storm Tracking
New forecast layout! Learn more

10-Day Weather Forecast

Advertisements
Track Severe Weather on mobile